createdAt,value
2024-04-15T00:00:02.300Z,114.78
2024-04-15T00:01:02.693Z,111.97
2024-04-15T00:02:02.454Z,111.97
2024-04-15T00:03:02.231Z,113.14
2024-04-15T00:04:02.558Z,113.61
2024-04-15T00:05:02.402Z,114.78
2024-04-15T00:06:02.443Z,114.31
2024-04-15T00:07:02.816Z,114.78
2024-04-15T00:08:02.617Z,114.78
2024-04-15T00:09:02.696Z,115.01
2024-04-15T00:10:02.344Z,115.01
2024-04-15T00:11:02.761Z,117.58
2024-04-15T00:12:02.606Z,117.58
2024-04-15T00:13:03.010Z,119.92
2024-04-15T00:14:02.303Z,118.75
2024-04-15T00:15:02.541Z,118.75
2024-04-15T00:16:02.487Z,117.35
2024-04-15T00:17:02.607Z,117.81
2024-04-15T00:18:02.635Z,117.81
2024-04-15T00:19:02.591Z,119.92
2024-04-15T00:20:02.941Z,119.92
2024-04-15T00:21:02.472Z,122.25
2024-04-15T00:22:02.692Z,123.89
2024-04-15T00:23:02.702Z,123.89
2024-04-15T00:24:02.784Z,123.42
2024-04-15T00:25:02.339Z,124.12
2024-04-15T00:26:02.384Z,123.89
2024-04-15T00:27:02.680Z,123.65
2024-04-15T00:28:02.127Z,123.89
2024-04-15T00:29:02.822Z,122.72
2024-04-15T00:30:02.437Z,122.72
2024-04-15T00:31:02.027Z,121.78
2024-04-15T00:34:02.849Z,119.22
2024-04-15T00:35:02.489Z,119.22
2024-04-15T00:36:02.714Z,118.51
2024-04-15T00:37:02.532Z,118.75
2024-04-15T00:38:02.262Z,117.58
2024-04-15T00:39:02.719Z,117.58
2024-04-15T00:40:02.837Z,119.22
2024-04-15T00:41:02.989Z,117.11
2024-04-15T00:42:02.752Z,116.88
2024-04-15T00:43:02.300Z,117.35
2024-04-15T00:44:02.830Z,118.05
2024-04-15T00:45:02.129Z,117.35
2024-04-15T00:46:02.240Z,117.35
2024-04-15T00:47:02.508Z,117.58
2024-04-15T00:48:03.072Z,118.75
2024-04-15T00:49:02.662Z,117.81
2024-04-15T00:50:02.187Z,118.05
2024-04-15T00:51:02.777Z,118.05
2024-04-15T00:54:03.046Z,119.45
2024-04-15T00:55:02.546Z,119.45
2024-04-15T00:56:02.949Z,120.15
2024-04-15T00:57:01.921Z,121.78
2024-04-15T00:58:02.939Z,121.78
2024-04-15T00:59:02.629Z,121.78
2024-04-15T01:00:02.577Z,122.25
2024-04-15T01:01:02.021Z,122.25
2024-04-15T01:02:02.547Z,124.35
2024-04-15T01:03:02.745Z,124.35
2024-04-15T01:04:02.959Z,122.72
2024-04-15T01:05:02.265Z,122.72
2024-04-15T01:06:02.928Z,123.65
2024-04-15T01:07:02.984Z,123.65
2024-04-15T01:08:02.776Z,122.02
2024-04-15T01:09:02.142Z,122.02
2024-04-15T01:10:02.447Z,124.82
2024-04-15T01:11:02.269Z,124.82
2024-04-15T01:12:02.094Z,122.49
2024-04-15T01:13:02.151Z,120.15
2024-04-15T01:14:02.312Z,120.15
2024-04-15T01:15:02.150Z,121.32
2024-04-15T01:16:02.827Z,121.78
2024-04-15T01:17:02.300Z,122.72
2024-04-15T01:18:03.097Z,120.38
2024-04-15T01:19:02.940Z,119.22
2024-04-15T01:20:01.725Z,119.22
2024-04-15T01:23:02.901Z,115.48
2024-04-15T01:24:02.515Z,115.48
2024-04-15T01:25:02.054Z,115.24
2024-04-15T01:26:02.347Z,115.24
2024-04-15T01:27:02.417Z,116.41
2024-04-15T01:28:03.197Z,116.41
2024-04-15T01:29:02.731Z,115.48
2024-04-15T01:30:02.274Z,115.24
2024-04-15T01:31:02.285Z,115.24
2024-04-15T01:32:02.160Z,116.18
2024-04-15T01:33:02.789Z,116.88
2024-04-15T01:34:02.761Z,116.18
2024-04-15T01:35:02.582Z,117.81
2024-04-15T01:36:01.823Z,118.05
2024-04-15T01:37:01.910Z,117.11
2024-04-15T01:38:02.109Z,117.35
2024-04-15T01:39:02.316Z,117.81
2024-04-15T01:40:02.262Z,116.65
2024-04-15T01:41:02.534Z,116.65
2024-04-15T01:42:02.568Z,119.45
2024-04-15T01:43:02.343Z,119.45
2024-04-15T01:44:02.093Z,118.05
2024-04-15T01:45:01.921Z,118.05
2024-04-15T01:46:01.819Z,116.88
2024-04-15T02:03:02.747Z,110.11
2024-04-15T02:04:01.839Z,109.64
2024-04-15T02:05:01.736Z,108
2024-04-15T02:06:02.506Z,107.77
2024-04-15T02:07:03.039Z,108.94
2024-04-15T02:08:02.402Z,109.64
2024-04-15T02:09:02.068Z,109.41
2024-04-15T02:10:02.425Z,106.84
2024-04-15T02:11:02.290Z,106.84
2024-04-15T02:12:02.411Z,107.3
2024-04-15T02:13:02.416Z,107.3
2024-04-15T02:14:02.640Z,106.37
2024-04-15T02:15:02.474Z,106.37
2024-04-15T02:16:02.549Z,108.24
2024-04-15T02:17:02.434Z,108.24
2024-04-15T02:18:02.912Z,108
2024-04-15T02:19:02.118Z,106.84
2024-04-15T02:20:01.896Z,106.84
2024-04-15T02:21:02.333Z,106.37
2024-04-15T02:22:02.829Z,107.77
2024-04-15T02:23:03.064Z,109.17
2024-04-15T02:24:02.761Z,110.34
2024-04-15T02:25:02.801Z,108.94
2024-04-15T02:26:02.063Z,108.7
2024-04-15T02:27:02.916Z,108.47
2024-04-15T02:28:02.159Z,108.94
2024-04-15T02:29:02.435Z,109.64
2024-04-15T02:30:02.612Z,109.64
2024-04-15T02:33:02.672Z,111.04
2024-04-15T02:34:02.191Z,111.04
2024-04-15T02:37:02.116Z,112.68
2024-04-15T02:38:02.010Z,113.61
2024-04-15T02:39:02.791Z,113.14
2024-04-15T02:40:02.732Z,113.38
2024-04-15T02:41:03.009Z,112.91
2024-04-15T02:42:02.681Z,113.14
2024-04-15T02:43:03.171Z,112.91
2024-04-15T02:44:02.902Z,112.91
2024-04-15T02:45:02.523Z,114.31
2024-04-15T02:46:02.512Z,114.31
2024-04-15T02:48:02.578Z,116.18
2024-04-15T02:49:02.344Z,115.71
2024-04-15T02:50:02.749Z,114.78
2024-04-15T02:51:02.508Z,115.24
2024-04-15T02:52:02.299Z,117.35
2024-04-15T02:53:02.138Z,116.18
2024-04-15T02:54:03.000Z,116.18
2024-04-15T02:57:02.414Z,118.28
2024-04-15T02:58:02.593Z,118.28
2024-04-15T02:59:02.447Z,120.62
2024-04-15T03:02:02.096Z,118.05
2024-04-15T03:03:02.380Z,118.75
2024-04-15T03:04:03.146Z,119.68
2024-04-15T03:05:02.699Z,119.92
2024-04-15T03:06:02.980Z,118.75
2024-04-15T03:07:02.587Z,118.05
2024-04-15T03:08:02.145Z,117.58
2024-04-15T03:09:02.152Z,117.81
2024-04-15T03:12:02.340Z,118.05
2024-04-15T03:13:02.132Z,118.05
2024-04-15T03:14:02.469Z,122.72
2024-04-15T03:15:03.200Z,122.72
2024-04-15T03:16:09.290Z,122.25
2024-04-15T03:17:02.478Z,121.08
2024-04-15T03:18:03.048Z,121.08
2024-04-15T03:19:02.808Z,121.32
2024-04-15T03:20:01.794Z,122.02
2024-04-15T03:21:02.776Z,123.19
2024-04-15T03:22:02.574Z,123.19
2024-04-15T03:23:02.890Z,121.55
2024-04-15T03:24:02.642Z,122.25
2024-04-15T03:25:02.368Z,124.35
2024-04-15T03:26:02.806Z,125.52
2024-04-15T03:27:02.211Z,125.52
2024-04-15T03:28:02.352Z,125.52
2024-04-15T03:29:02.843Z,126.22
2024-04-15T03:30:02.741Z,126.22
2024-04-15T03:31:01.953Z,125.06
2024-04-15T03:34:02.914Z,123.65
2024-04-15T03:35:02.528Z,122.95
2024-04-15T03:36:02.103Z,122.49
2024-04-15T03:37:02.173Z,123.19
2024-04-15T03:40:02.756Z,125.06
2024-04-15T03:41:02.742Z,124.82
2024-04-15T03:43:02.914Z,125.29
2024-04-15T03:44:02.707Z,125.06
2024-04-15T03:45:02.599Z,125.06
2024-04-15T03:46:01.966Z,122.25
2024-04-15T03:47:02.332Z,122.25
2024-04-15T03:48:02.141Z,122.25
2024-04-15T03:49:02.562Z,123.42
2024-04-15T03:50:02.308Z,123.42
2024-04-15T03:51:02.673Z,123.65
2024-04-15T03:52:01.987Z,123.19
2024-04-15T03:53:02.493Z,125.76
2024-04-15T03:54:02.198Z,124.59
2024-04-15T03:55:02.367Z,124.82
2024-04-15T03:56:02.652Z,123.19
2024-04-15T03:57:02.782Z,121.78
2024-04-15T03:58:02.501Z,119.92
2024-04-15T03:59:02.933Z,118.75
2024-04-15T04:00:02.696Z,118.75
2024-04-15T04:01:02.332Z,118.75
2024-04-15T04:02:02.828Z,120.38
2024-04-15T04:03:02.259Z,122.49
2024-04-15T04:04:02.296Z,122.49
2024-04-15T04:05:02.863Z,123.42
2024-04-15T04:06:10.986Z,124.82
2024-04-15T04:07:02.179Z,125.76
2024-04-15T04:08:02.634Z,125.76
2024-04-15T04:09:02.619Z,125.29
2024-04-15T04:10:03.046Z,125.29
2024-04-15T04:11:02.017Z,124.12
2024-04-15T04:12:02.274Z,124.12
2024-04-15T04:13:02.838Z,124.12
2024-04-15T04:14:02.128Z,124.12
2024-04-15T04:15:03.014Z,123.42
2024-04-15T04:16:02.447Z,123.42
2024-04-15T04:17:03.009Z,123.42
2024-04-15T04:18:01.997Z,123.42
2024-04-15T04:19:02.583Z,125.06
2024-04-15T04:20:02.470Z,122.72
2024-04-15T04:21:02.118Z,122.72
2024-04-15T04:22:02.009Z,121.78
2024-04-15T04:24:03.154Z,121.55
2024-04-15T04:25:02.783Z,120.15
2024-04-15T04:26:02.369Z,119.45
2024-04-15T04:27:02.818Z,118.98
2024-04-15T04:28:02.455Z,118.51
2024-04-15T04:29:01.954Z,118.51
2024-04-15T04:30:02.823Z,116.65
2024-04-15T04:31:02.895Z,116.65
2024-04-15T04:32:02.844Z,115.01
2024-04-15T04:33:02.675Z,115.01
2024-04-15T04:34:02.601Z,116.88
2024-04-15T04:35:02.742Z,116.88
2024-04-15T04:36:02.643Z,118.28
2024-04-15T04:37:02.705Z,118.98
2024-04-15T04:38:02.483Z,116.88
2024-04-15T04:39:02.508Z,117.35
2024-04-15T04:40:02.990Z,117.81
2024-04-15T04:41:02.427Z,118.28
2024-04-15T04:42:02.589Z,118.75
2024-04-15T04:43:03.216Z,116.88
2024-04-15T04:44:02.681Z,116.65
2024-04-15T04:45:02.469Z,117.58
2024-04-15T04:46:01.918Z,117.58
2024-04-15T04:47:03.100Z,117.58
2024-04-15T04:48:02.820Z,117.58
2024-04-15T04:49:02.552Z,119.22
2024-04-15T04:50:01.831Z,119.22
2024-04-15T04:51:02.845Z,117.35
2024-04-15T04:52:02.568Z,115.48
2024-04-15T04:53:02.111Z,115.48
2024-04-15T04:54:02.504Z,116.18
2024-04-15T04:55:01.443Z,114.31
2024-04-15T04:57:02.168Z,115.48
2024-04-15T04:58:02.111Z,115.71
2024-04-15T04:59:02.464Z,116.41
2024-04-15T05:01:02.682Z,115.95
2024-04-15T05:02:04.000Z,115.01
2024-04-15T05:03:02.872Z,115.01
2024-04-15T05:04:02.443Z,114.31
2024-04-15T05:05:02.310Z,114.31
2024-04-15T05:06:02.654Z,113.38
2024-04-15T05:07:01.964Z,113.38
2024-04-15T05:08:02.209Z,112.68
2024-04-15T05:09:02.289Z,112.68
2024-04-15T05:10:02.684Z,112.68
2024-04-15T05:11:02.358Z,112.68
2024-04-15T05:12:02.049Z,112.44
2024-04-15T05:13:02.850Z,110.57
2024-04-15T05:14:02.518Z,110.81
2024-04-15T05:15:02.175Z,111.51
2024-04-15T05:16:02.530Z,113.38
2024-04-15T05:17:02.981Z,113.84
2024-04-15T05:18:02.904Z,112.91
2024-04-15T05:19:02.275Z,113.38
2024-04-15T05:20:03.075Z,113.38
2024-04-15T05:21:02.880Z,116.41
2024-04-15T05:22:02.912Z,116.41
2024-04-15T05:23:02.908Z,114.54
2024-04-15T05:24:01.916Z,114.54
2024-04-15T05:25:01.981Z,115.95
2024-04-15T05:26:02.748Z,118.51
2024-04-15T05:27:02.256Z,117.35
2024-04-15T05:28:02.145Z,117.81
2024-04-15T05:30:02.517Z,119.92
2024-04-15T05:31:02.330Z,118.98
2024-04-15T05:32:02.170Z,119.68
2024-04-15T05:34:03.120Z,118.75
2024-04-15T05:35:02.929Z,118.75
2024-04-15T05:36:02.358Z,119.22
2024-04-15T05:37:02.682Z,119.22
2024-04-15T05:38:02.466Z,120.62
2024-04-15T05:39:02.614Z,120.62
2024-04-15T05:40:02.554Z,118.98
2024-04-15T05:41:02.713Z,118.98
2024-04-15T05:42:02.149Z,118.98
2024-04-15T05:43:02.059Z,119.68
2024-04-15T05:44:01.900Z,120.15
2024-04-15T05:45:02.606Z,119.92
2024-04-15T05:46:05.220Z,120.85
2024-04-15T05:47:02.242Z,122.02
2024-04-15T05:48:03.082Z,120.62
2024-04-15T05:49:02.474Z,120.62
2024-04-15T05:50:02.397Z,120.85
2024-04-15T05:51:02.094Z,121.32
2024-04-15T05:52:02.103Z,121.32
2024-04-15T05:53:03.001Z,121.78
2024-04-15T05:54:02.109Z,121.78
2024-04-15T05:55:02.299Z,123.19
2024-04-15T05:56:02.668Z,123.19
2024-04-15T05:57:02.246Z,122.72
2024-04-15T05:58:02.818Z,122.95
2024-04-15T05:59:01.804Z,122.95
2024-04-15T06:00:02.316Z,124.12
2024-04-15T06:01:02.260Z,124.82
2024-04-15T06:02:03.112Z,125.29
2024-04-15T06:03:02.129Z,125.76
2024-04-15T06:04:02.016Z,125.52
2024-04-15T06:05:02.576Z,126.46
2024-04-15T06:06:02.695Z,125.99
2024-04-15T06:07:02.325Z,127.63
2024-04-15T06:08:02.934Z,126.92
2024-04-15T06:09:02.452Z,126.92
2024-04-15T06:10:02.632Z,128.56
2024-04-15T06:11:02.620Z,128.56
2024-04-15T06:12:02.728Z,129.03
2024-04-15T06:13:02.445Z,129.03
2024-04-15T06:14:02.109Z,130.43
2024-04-15T06:15:02.952Z,128.33
2024-04-15T06:16:03.036Z,128.33
2024-04-15T06:17:02.858Z,127.16
2024-04-15T06:18:02.965Z,127.16
2024-04-15T06:19:02.065Z,127.16
2024-04-15T06:20:01.843Z,125.76
2024-04-15T06:21:02.167Z,125.52
2024-04-15T06:22:02.046Z,126.22
2024-04-15T06:23:02.135Z,126.92
2024-04-15T06:24:02.472Z,126.92
2024-04-15T06:25:02.961Z,125.29
2024-04-15T06:26:01.942Z,125.29
2024-04-15T06:27:02.465Z,123.65
2024-04-15T06:28:02.353Z,123.65
2024-04-15T06:29:02.288Z,126.22
2024-04-15T06:30:02.291Z,124.12
2024-04-15T06:31:03.096Z,124.12
2024-04-15T06:32:02.566Z,124.12
2024-04-15T06:33:02.211Z,125.06
2024-04-15T06:34:02.084Z,124.59
2024-04-15T06:36:02.590Z,122.49
2024-04-15T06:38:02.562Z,120.85
2024-04-15T06:39:02.150Z,119.92
2024-04-15T06:40:03.269Z,119.92
2024-04-15T06:41:02.800Z,119.92
2024-04-15T06:42:02.634Z,120.15
2024-04-15T06:43:03.881Z,120.15
2024-04-15T06:44:02.585Z,122.02
2024-04-15T06:45:02.848Z,122.02
2024-04-15T06:46:03.086Z,122.02
2024-04-15T06:47:02.151Z,120.15
2024-04-15T06:48:02.842Z,120.15
2024-04-15T06:49:02.418Z,120.38
2024-04-15T06:50:02.943Z,120.62
2024-04-15T06:52:02.762Z,118.98
2024-04-15T06:53:02.272Z,120.15
2024-04-15T06:54:02.958Z,120.15
2024-04-15T06:55:02.338Z,120.38
2024-04-15T06:56:03.036Z,121.32
2024-04-15T06:57:02.619Z,122.25
2024-04-15T06:58:02.324Z,122.25
2024-04-15T06:59:02.124Z,122.72
2024-04-15T07:00:02.215Z,122.72
2024-04-15T07:01:02.310Z,120.38
2024-04-15T07:02:02.568Z,120.38
2024-04-15T07:03:02.462Z,121.08
2024-04-15T07:04:02.767Z,120.15
2024-04-15T07:05:02.183Z,120.15
2024-04-15T07:06:02.141Z,119.92
2024-04-15T07:07:02.227Z,118.51
2024-04-15T07:08:02.707Z,118.28
2024-04-15T07:09:02.070Z,117.35
2024-04-15T07:10:02.968Z,118.05
2024-04-15T07:11:02.617Z,117.81
2024-04-15T07:12:02.027Z,118.05
2024-04-15T07:13:03.168Z,118.05
2024-04-15T07:14:02.432Z,117.81
2024-04-15T07:15:02.325Z,117.81
2024-04-15T07:16:02.094Z,116.88
2024-04-15T07:17:02.567Z,116.88
2024-04-15T07:18:01.982Z,116.18
2024-04-15T07:19:02.181Z,116.18
2024-04-15T07:20:02.880Z,117.81
2024-04-15T07:21:02.277Z,117.35
2024-04-15T07:22:02.842Z,117.58
2024-04-15T07:23:03.079Z,118.98
2024-04-15T07:24:02.949Z,119.68
2024-04-15T07:25:03.172Z,119.45
2024-04-15T07:26:02.145Z,119.22
2024-04-15T07:33:03.017Z,119.22
2024-04-15T07:34:03.087Z,119.22
2024-04-15T07:35:03.032Z,120.62
2024-04-15T07:36:02.099Z,121.32
2024-04-15T07:37:02.781Z,121.32
2024-04-15T07:38:02.304Z,121.55
2024-04-15T07:39:02.399Z,122.25
2024-04-15T07:40:03.531Z,122.25
2024-04-15T07:41:02.515Z,119.68
2024-04-15T07:42:02.433Z,121.08
2024-04-15T07:43:03.075Z,122.02
2024-04-15T07:44:02.667Z,121.08
2024-04-15T07:45:02.269Z,121.32
2024-04-15T07:46:02.471Z,121.55
2024-04-15T07:47:02.354Z,123.65
2024-04-15T07:48:02.732Z,123.19
2024-04-15T07:49:02.942Z,122.49
2024-04-15T07:50:02.574Z,121.78
2024-04-15T07:51:02.283Z,121.78
2024-04-15T07:52:02.760Z,123.89
2024-04-15T07:53:02.807Z,123.89
2024-04-15T07:54:01.914Z,122.49
2024-04-15T07:55:02.663Z,122.49
2024-04-15T07:56:02.115Z,122.49
2024-04-15T07:57:02.541Z,122.95
2024-04-15T07:58:02.278Z,122.95
2024-04-15T07:59:02.138Z,122.95
2024-04-15T08:00:03.352Z,122.02
2024-04-15T08:01:01.888Z,122.25
2024-04-15T08:02:02.773Z,122.25
2024-04-15T08:03:02.600Z,120.15
2024-04-15T08:06:02.842Z,122.25
2024-04-15T08:07:09.174Z,122.25
2024-04-15T08:08:02.904Z,121.08
2024-04-15T08:09:02.188Z,121.08
2024-04-15T08:12:02.751Z,117.58
2024-04-15T08:13:01.978Z,117.11
2024-04-15T08:14:02.908Z,117.11
2024-04-15T08:15:02.156Z,117.81
2024-04-15T08:16:02.514Z,117.35
2024-04-15T08:17:02.299Z,117.35
2024-04-15T08:18:03.057Z,118.51
2024-04-15T08:19:02.491Z,116.65
2024-04-15T08:20:03.018Z,116.65
2024-04-15T08:21:02.297Z,115.95
2024-04-15T08:22:02.352Z,115.95
2024-04-15T08:23:03.013Z,115.71
2024-04-15T08:24:02.152Z,116.18
2024-04-15T08:25:02.541Z,116.41
2024-04-15T08:26:02.525Z,117.81
2024-04-15T08:27:02.633Z,118.51
2024-04-15T08:28:02.817Z,118.28
2024-04-15T08:29:02.371Z,117.81
2024-04-15T08:30:02.106Z,117.81
2024-04-15T08:31:02.825Z,117.11
2024-04-15T08:32:02.999Z,117.11
2024-04-15T08:33:02.485Z,122.95
2024-04-15T08:34:02.920Z,122.95
2024-04-15T08:35:02.747Z,122.72
2024-04-15T08:36:02.631Z,122.25
2024-04-15T08:37:02.866Z,122.25
2024-04-15T08:38:03.201Z,122.95
2024-04-15T08:39:02.872Z,124.12
2024-04-15T08:40:03.048Z,125.06
2024-04-15T08:43:02.286Z,122.95
2024-04-15T08:44:02.410Z,122.72
2024-04-15T08:45:02.347Z,121.55
2024-04-15T08:46:02.707Z,122.49
2024-04-15T08:47:02.127Z,122.49
2024-04-15T08:48:02.876Z,122.25
2024-04-15T08:49:02.647Z,122.25
2024-04-15T08:50:02.389Z,121.55
2024-04-15T08:51:01.934Z,121.55
2024-04-15T08:52:03.160Z,119.92
2024-04-15T08:53:01.787Z,120.38
2024-04-15T08:54:02.458Z,120.38
2024-04-15T08:55:02.832Z,120.85
2024-04-15T08:56:02.590Z,121.08
2024-04-15T08:57:02.237Z,120.15
2024-04-15T08:58:01.987Z,119.68
2024-04-15T08:59:04.915Z,120.15
2024-04-15T09:00:01.902Z,122.02
2024-04-15T09:01:02.525Z,122.72
2024-04-15T09:02:02.505Z,122.72
2024-04-15T09:03:01.937Z,125.29
2024-04-15T09:04:03.147Z,125.29
2024-04-15T09:05:02.183Z,126.22
2024-04-15T09:06:02.814Z,126.22
2024-04-15T09:07:02.548Z,126.92
2024-04-15T09:08:02.168Z,126.92
2024-04-15T09:09:02.249Z,129.03
2024-04-15T09:10:02.795Z,129.03
2024-04-15T09:11:02.777Z,131.6
2024-04-15T09:12:02.732Z,132.53
2024-04-15T09:13:03.082Z,133
2024-04-15T09:14:02.418Z,133
2024-04-15T09:15:02.358Z,132.53
2024-04-15T09:16:02.098Z,132.53
2024-04-15T09:17:02.851Z,133.47
2024-04-15T09:18:02.619Z,133.7
2024-04-15T09:19:02.826Z,133.7
2024-04-15T09:20:02.736Z,133.93
2024-04-15T09:21:04.887Z,134.17
2024-04-15T09:22:02.846Z,132.53
2024-04-15T09:23:02.653Z,132.53
2024-04-15T09:24:03.057Z,132.06
2024-04-15T09:25:02.819Z,134.17
2024-04-15T09:26:01.861Z,132.3
2024-04-15T09:27:02.066Z,130.43
2024-04-15T09:28:02.482Z,130.9
2024-04-15T09:29:02.421Z,132.06
2024-04-15T09:30:03.350Z,133.23
2024-04-15T09:31:02.662Z,132.77
2024-04-15T09:32:02.032Z,130.66
2024-04-15T09:33:02.629Z,128.56
2024-04-15T09:34:02.524Z,128.56
2024-04-15T09:35:01.921Z,128.56
2024-04-15T09:36:02.813Z,129.26
2024-04-15T09:37:02.330Z,129.26
2024-04-15T09:38:02.964Z,127.39
2024-04-15T09:39:02.133Z,126.92
2024-04-15T09:40:02.685Z,126.92
2024-04-15T09:41:02.298Z,125.06
2024-04-15T09:42:02.383Z,125.06
2024-04-15T09:43:02.306Z,126.92
2024-04-15T09:44:02.476Z,126.92
2024-04-15T09:45:02.207Z,126.46
2024-04-15T09:46:02.475Z,125.99
2024-04-15T09:47:02.597Z,125.06
2024-04-15T09:48:02.181Z,124.59
2024-04-15T09:49:02.785Z,124.59
2024-04-15T09:50:02.695Z,127.63
2024-04-15T09:51:02.741Z,127.63
2024-04-15T09:52:02.339Z,128.09
2024-04-15T09:53:02.236Z,128.09
2024-04-15T09:54:02.647Z,127.39
2024-04-15T09:55:02.883Z,127.39
2024-04-15T10:03:02.509Z,120.85
2024-04-15T10:05:02.723Z,118.98
2024-04-15T10:06:02.444Z,118.98
2024-04-15T10:07:01.996Z,117.35
2024-04-15T10:08:02.351Z,117.35
2024-04-15T10:14:02.732Z,116.88
2024-04-15T10:15:02.601Z,119.68
2024-04-15T10:16:02.747Z,121.08
2024-04-15T10:17:02.712Z,120.62
2024-04-15T10:18:02.736Z,119.92
2024-04-15T10:19:02.440Z,120.62
2024-04-15T10:20:01.833Z,121.32
2024-04-15T10:21:02.291Z,121.32
2024-04-15T10:22:03.134Z,124.12
2024-04-15T10:23:04.917Z,124.12
2024-04-15T10:24:02.298Z,122.95
2024-04-15T10:25:02.971Z,120.38
2024-04-15T10:26:02.429Z,121.32
2024-04-15T10:27:02.646Z,121.08
2024-04-15T10:28:02.764Z,122.02
2024-04-15T10:29:02.643Z,121.08
2024-04-15T10:30:02.796Z,122.25
2024-04-15T10:31:02.505Z,125.29
2024-04-15T10:32:01.892Z,124.59
2024-04-15T10:34:02.093Z,123.42
2024-04-15T10:36:02.628Z,123.89
2024-04-15T10:37:02.221Z,123.19
2024-04-15T10:38:02.673Z,123.19
2024-04-15T10:39:02.653Z,123.42
2024-04-15T10:40:01.910Z,124.12
2024-04-15T10:41:02.641Z,124.12
2024-04-15T10:42:02.950Z,125.52
2024-04-15T10:43:01.923Z,125.52
2024-04-15T10:44:02.660Z,126.46
2024-04-15T10:45:02.954Z,126.46
2024-04-15T10:46:02.491Z,129.26
2024-04-15T10:47:02.921Z,129.26
2024-04-15T10:48:02.532Z,130.43
2024-04-15T10:49:02.418Z,129.49
2024-04-15T10:50:02.364Z,129.49
2024-04-15T10:51:02.124Z,128.56
2024-04-15T10:52:02.959Z,128.09
2024-04-15T10:53:02.919Z,128.09
2024-04-15T10:54:02.420Z,127.86
2024-04-15T10:55:02.658Z,129.03
2024-04-15T10:56:02.416Z,129.03
2024-04-15T10:57:02.588Z,129.73
2024-04-15T10:58:02.156Z,129.73
2024-04-15T10:59:02.013Z,130.2
2024-04-15T11:00:02.954Z,130.2
2024-04-15T11:01:02.953Z,130.2
2024-04-15T11:02:01.603Z,132.06
2024-04-15T11:03:02.870Z,133.47
2024-04-15T11:04:02.111Z,133.23
2024-04-15T11:05:02.366Z,133.23
2024-04-15T11:06:02.965Z,136.27
2024-04-15T11:07:02.604Z,136.27
2024-04-15T11:08:02.034Z,137.44
2024-04-15T11:09:02.603Z,137.44
2024-04-15T11:10:03.105Z,137.21
2024-04-15T11:11:02.269Z,136.27
2024-04-15T11:12:02.943Z,136.27
2024-04-15T11:13:02.111Z,136.97
2024-04-15T11:14:02.359Z,138.37
2024-04-15T11:15:02.709Z,136.27
2024-04-15T11:16:02.600Z,136.04
2024-04-15T11:17:02.299Z,135.8
2024-04-15T11:18:02.659Z,136.27
2024-04-15T11:19:02.716Z,136.97
2024-04-15T11:21:02.124Z,135.57
2024-04-15T11:22:02.804Z,135.57
2024-04-15T11:23:02.870Z,134.87
2024-04-15T11:24:02.431Z,134.87
2024-04-15T11:25:02.218Z,137.67
2024-04-15T11:26:01.711Z,137.67
2024-04-15T11:27:02.686Z,137.67
2024-04-15T11:28:02.348Z,136.74
2024-04-15T11:29:02.662Z,136.74
2024-04-15T11:30:04.884Z,134.87
2024-04-15T11:31:02.326Z,133.7
2024-04-15T11:32:02.657Z,136.27
2024-04-15T11:33:02.317Z,136.27
2024-04-15T11:34:01.976Z,136.27
2024-04-15T11:35:02.885Z,137.91
2024-04-15T11:36:02.538Z,136.5
2024-04-15T11:37:02.074Z,138.14
2024-04-15T11:38:02.048Z,138.61
2024-04-15T11:39:02.756Z,139.31
2024-04-15T11:40:02.944Z,138.14
2024-04-15T11:41:02.126Z,138.14
2024-04-15T11:42:02.962Z,137.67
2024-04-15T11:43:02.586Z,136.74
2024-04-15T11:44:02.296Z,136.74
2024-04-15T11:45:01.773Z,135.34
2024-04-15T11:46:02.337Z,135.34
2024-04-15T11:47:02.157Z,133.47
2024-04-15T11:48:02.758Z,133.47
2024-04-15T11:49:02.386Z,132.3
2024-04-15T11:50:03.181Z,133.93
2024-04-15T11:54:02.945Z,136.27
2024-04-15T11:55:02.393Z,135.57
2024-04-15T11:56:02.528Z,135.8
2024-04-15T11:57:02.483Z,135.1
2024-04-15T11:58:02.008Z,135.8
2024-04-15T11:59:02.720Z,137.44
2024-04-15T12:00:02.188Z,136.97
2024-04-15T12:01:02.129Z,136.97
2024-04-15T12:02:03.026Z,136.27
2024-04-15T12:03:02.250Z,136.27
2024-04-15T12:04:02.808Z,135.1
2024-04-15T12:05:02.508Z,135.1
2024-04-15T12:06:03.006Z,132.06
2024-04-15T12:07:02.480Z,130.2
2024-04-15T12:08:02.589Z,130.2
2024-04-15T12:09:02.913Z,130.2
2024-04-15T12:10:02.835Z,128.79
2024-04-15T12:11:02.148Z,129.73
2024-04-15T12:12:02.077Z,129.03
2024-04-15T12:13:02.713Z,128.09
2024-04-15T12:14:02.633Z,128.09
2024-04-15T12:15:04.748Z,125.76
2024-04-15T12:16:03.124Z,126.69
2024-04-15T12:17:02.994Z,125.99
2024-04-15T12:18:02.459Z,125.06
2024-04-15T12:19:02.071Z,125.06
2024-04-15T12:20:03.109Z,123.65
2024-04-15T12:21:02.721Z,123.65
2024-04-15T12:22:02.315Z,123.89
2024-04-15T12:23:02.752Z,123.89
2024-04-15T12:24:02.477Z,122.72
2024-04-15T12:25:08.119Z,120.15
2024-04-15T12:26:02.794Z,120.15
2024-04-15T12:27:02.019Z,120.15
2024-04-15T12:28:01.943Z,119.45
2024-04-15T12:29:02.552Z,119.68
2024-04-15T12:30:02.250Z,119.68
2024-04-15T12:31:02.620Z,118.51
2024-04-15T12:32:02.771Z,115.95
2024-04-15T12:33:02.332Z,116.65
2024-04-15T12:34:02.645Z,117.58
2024-04-15T12:37:02.923Z,116.65
2024-04-15T12:38:02.444Z,116.65
2024-04-15T12:39:01.705Z,115.71
2024-04-15T12:40:02.639Z,115.71
2024-04-15T12:41:02.841Z,116.18
2024-04-15T12:42:02.626Z,117.11
2024-04-15T12:43:02.139Z,117.11
2024-04-15T12:44:05.330Z,117.35
2024-04-15T12:47:02.113Z,119.22
2024-04-15T12:48:02.799Z,119.92
2024-04-15T12:49:02.294Z,119.92
2024-04-15T12:50:02.919Z,120.15
2024-04-15T12:51:02.240Z,118.75
2024-04-15T12:52:02.920Z,118.28
2024-04-15T12:53:02.556Z,118.28
2024-04-15T12:54:02.818Z,118.75
2024-04-15T12:55:03.109Z,118.98
2024-04-15T12:56:02.599Z,118.75
2024-04-15T12:57:02.087Z,120.15
2024-04-15T12:58:02.615Z,120.38
2024-04-15T12:59:02.292Z,120.38
2024-04-15T13:00:02.928Z,119.22
2024-04-15T13:01:04.870Z,119.22
2024-04-15T13:02:09.007Z,119.22
2024-04-15T13:03:02.715Z,118.28
2024-04-15T13:04:02.429Z,118.98
2024-04-15T13:05:02.484Z,122.49
2024-04-15T13:06:02.281Z,122.49
2024-04-15T13:07:02.400Z,122.49
2024-04-15T13:08:03.318Z,122.72
2024-04-15T13:09:02.491Z,122.49
2024-04-15T13:10:02.698Z,123.42
2024-04-15T13:11:05.032Z,122.95
2024-04-15T13:12:02.083Z,122.95
2024-04-15T13:13:02.475Z,123.19
2024-04-15T13:14:02.416Z,123.89
2024-04-15T13:15:02.828Z,122.72
2024-04-15T13:16:04.535Z,122.72
2024-04-15T13:17:02.755Z,122.02
2024-04-15T13:18:03.182Z,122.25
2024-04-15T13:19:02.620Z,121.78
2024-04-15T13:20:02.958Z,121.32
2024-04-15T13:21:02.244Z,121.78
2024-04-15T13:22:04.886Z,122.02
2024-04-15T13:23:02.161Z,121.32
2024-04-15T13:24:02.933Z,120.62
2024-04-15T13:26:02.156Z,124.82
2024-04-15T13:27:02.270Z,126.46
2024-04-15T13:28:02.591Z,126.46
2024-04-15T13:29:02.581Z,126.22
2024-04-15T13:30:02.689Z,126.46
2024-04-15T13:31:02.067Z,125.52
2024-04-15T13:32:12.666Z,125.99
2024-04-15T13:33:02.737Z,124.82
2024-04-15T13:34:02.123Z,123.19
2024-04-15T13:35:02.278Z,122.49
2024-04-15T13:36:02.725Z,123.19
2024-04-15T13:37:02.063Z,123.65
2024-04-15T13:38:02.754Z,125.06
2024-04-15T13:39:02.340Z,125.76
2024-04-15T13:40:02.430Z,125.76
2024-04-15T13:41:02.816Z,127.39
2024-04-15T13:42:02.725Z,127.39
2024-04-15T13:43:02.579Z,125.76
2024-04-15T13:44:02.782Z,125.76
2024-04-15T13:45:02.383Z,125.06
2024-04-15T13:46:04.880Z,125.06
2024-04-15T13:47:03.088Z,122.72
2024-04-15T13:48:02.819Z,123.42
2024-04-15T13:49:02.091Z,123.42
2024-04-15T13:50:02.344Z,122.72
2024-04-15T13:51:02.649Z,122.49